Emden Airport

EDWE · Niedersachsen, Deutschland

METAR-Geschichte EDWE · Flugplatz Emden

Unten siehst du die METARs der letzten paar Tage. Wähle ein Jahr, um ältere METARs ab dem Jahr 2007 zu durchsuchen.

28. November 2022

Uhrzeit Code Wetter Temp. Sichtweite Wolkendecke Wind METAR/SPECI
04:50
I
6 °C 6 km 600 ft 140° 140° 10 kt METAR EDWE 280350Z AUTO 14010KT 120V180 6000 // BKN006/// OVC013/// 06/05 Q1008
04:20
I
6 °C 5 km 800 ft 150° 150° 8 kt METAR EDWE 280320Z AUTO 15008KT 5000 // OVC008/// 06/05 Q1009
03:50
M
6 °C 10 km+ 1.400 ft 130° 130° 10 kt METAR EDWE 280250Z AUTO 13010KT 9999 // OVC014/// 06/05 Q1009
03:20
M
6 °C 10 km+ 2.300 ft 140° 140° 10 kt METAR EDWE 280220Z AUTO 14010KT 9999 // FEW011/// OVC023/// 06/05 Q1009
02:50
M
6 °C 8 km 1.800 ft 130° 130° 11 kt METAR EDWE 280150Z AUTO 13011KT 8000 // FEW010/// BKN018/// OVC022/// 06/05 Q1009
02:20
M
6 °C 6 km 2.200 ft 140° 140° 11 kt METAR EDWE 280120Z AUTO 14011KT 6000 // FEW015/// BKN022/// OVC031/// 06/05 Q1010
01:50
V
6 °C 10 km+ 3.200 ft 130° 130° 10 kt METAR EDWE 280050Z AUTO 13010KT 9999 // FEW027/// BKN032/// OVC046/// 06/05 Q1010
01:20
M
6 °C 10 km+ 2.700 ft 130° 130° 9 kt METAR EDWE 280020Z AUTO 13009KT 100V160 9999 // FEW010/// BKN027/// OVC035/// 06/05 Q1011
00:50
M
6 °C 10 km+ 2.700 ft 140° 140° 10 kt METAR EDWE 272350Z AUTO 14010KT 9999 // FEW008/// BKN027/// OVC035/// 06/05 Q1011
00:20
M
6 °C 10 km+ 2.600 ft 140° 140° 10 kt METAR EDWE 272320Z AUTO 14010KT 9999 // FEW008/// OVC026/// 06/05 Q1012

27. November 2022

Uhrzeit Code Wetter Temp. Sichtweite Wolkendecke Wind METAR/SPECI
23:50
M
6 °C 10 km+ 2.500 ft 130° 130° 10 kt METAR EDWE 272250Z AUTO 13010KT 9999 // FEW009/// OVC025/// 06/05 Q1012
23:20
M
6 °C 10 km+ 2.400 ft 140° 140° 9 kt METAR EDWE 272220Z AUTO 14009KT 9999 // OVC024/// 06/05 Q1012
22:50
M
6 °C 10 km+ 2.300 ft 130° 130° 10 kt METAR EDWE 272150Z AUTO 13010KT 9999 // OVC023/// 06/05 Q1012
22:20
V
6 °C 10 km+ 3.600 ft 140° 140° 9 kt METAR EDWE 272120Z AUTO 14009KT 9999 // SCT027/// OVC036/// 06/05 Q1013
21:50
M
6 °C 10 km+ 2.700 ft 140° 140° 9 kt METAR EDWE 272050Z AUTO 14009KT 9999 // OVC027/// 06/05 Q1013
21:20
V
6 °C 10 km+ 3.100 ft 130° 130° 11 kt SPECI EDWE 272020Z AUTO 13011KT 9999 // OVC031/// 06/05 Q1014
20:50
V
6 °C 10 km+ 3.700 ft 140° 140° 10 kt METAR EDWE 271950Z AUTO 14010KT 9999 // SCT032/// OVC037/// 06/05 Q1014
20:20
V
6 °C 10 km+ 3.500 ft 140° 140° 11 kt METAR EDWE 271920Z AUTO 14011KT 9999 // OVC035/// 06/05 Q1014
19:50
M
6 °C 10 km+ 2.800 ft 140° 140° 10 kt METAR EDWE 271850Z AUTO 14010KT 9999 // OVC028/// 06/05 Q1014
19:20
V
6 °C 10 km+ 3.800 ft 140° 140° 11 kt METAR EDWE 271820Z AUTO 14011KT 9999 // SCT031/// BKN038/// OVC055/// 06/05 Q1015
18:50
V
6 °C 10 km+ 3.600 ft 140° 140° 12 kt METAR EDWE 271750Z AUTO 14012KT 9999 // SCT030/// BKN036/// OVC055/// 06/04 Q1015
18:20
V
6 °C 10 km+ 3.100 ft 140° 140° 11 kt METAR EDWE 271720Z AUTO 14011KT 9999 // SCT027/// BKN031/// OVC037/// 06/04 Q1015
17:50
V
6 °C 10 km+ 3.800 ft 140° 140° 11 kt METAR EDWE 271650Z AUTO 14011KT 9999 // SCT031/// OVC038/// 06/04 Q1016
17:20
V
6 °C 10 km+ 3.500 ft 140° 140° 11 kt METAR EDWE 271620Z AUTO 14011KT 9999 // OVC035/// 06/04 Q1016
16:50
V
6 °C 10 km+ 3.000 ft 140° 140° 9 kt METAR EDWE 271550Z AUTO 14009KT 9999 // OVC030/// 06/04 Q1016
16:20
V
6 °C 10 km+ 3.100 ft 140° 140° 10 kt METAR EDWE 271520Z AUTO 14010KT 9999 // BKN031/// BKN035/// OVC086/// 06/04 Q1017

26. November 2022

Uhrzeit Code Wetter Temp. Sichtweite Wolkendecke Wind METAR/SPECI
08:20
M
4 °C 5 km - 190° 190° 8 kt METAR EDWE 260720Z AUTO 19008KT 5000 // SCT200/// 04/04 Q1026
07:50
M
4 °C 6 km - 200° 200° 6 kt METAR EDWE 260650Z AUTO 20006KT 6000 // FEW200/// 04/04 Q1026
07:20
M
5 °C 7 km - 200° 200° 6 kt METAR EDWE 260620Z AUTO 20006KT 7000 // NCD 05/04 Q1025
06:50
V
5 °C 8 km - 200° 200° 6 kt METAR EDWE 260550Z AUTO 20006KT 8000 // NCD 05/04 Q1025
06:20
V
5 °C 10 km+ - 200° 200° 6 kt METAR EDWE 260520Z AUTO 20006KT 9999 // NCD 05/04 Q1025
05:50
V
5 °C 10 km+ - 200° 200° 6 kt METAR EDWE 260450Z AUTO 20006KT 9999 // NCD 05/04 Q1025
05:20
V
6 °C 10 km+ - 210° 210° 6 kt METAR EDWE 260420Z AUTO 21006KT 9999 // NCD 06/05 Q1025
04:50
V
5 °C 10 km+ - 200° 200° 5 kt METAR EDWE 260350Z AUTO 20005KT 9999 // NCD 05/05 Q1024
04:20
V
5 °C 10 km+ - 210° 210° 4 kt METAR EDWE 260320Z AUTO 21004KT 9999 // NCD 05/05 Q1024
03:50
V
5 °C 10 km+ - 210° 210° 4 kt METAR EDWE 260250Z AUTO 21004KT 9999 // NCD 05/05 Q1024
03:20
I
3 °C 3,2 km - 210° 210° 3 kt METAR EDWE 260220Z AUTO 21003KT 3200 // NCD 03/03 Q1024
02:50
V
4 °C 10 km+ - 210° 210° 3 kt METAR EDWE 260150Z AUTO 21003KT 9999 // NCD 04/03 Q1024
02:20
L
4 °C 1 km - 220° 220° 3 kt METAR EDWE 260120Z AUTO 22003KT 1000 R25/1300D // NCD 04/04 Q1023
01:50
I
4 °C 3,9 km - 220° 220° 4 kt METAR EDWE 260050Z AUTO 22004KT 3900 // NCD 04/04 Q1023
01:20
M
4 °C 5 km - 210° 210° 3 kt METAR EDWE 260020Z AUTO 21003KT 5000 // NCD 04/04 Q1023
00:50
V
4 °C 10 km+ - 230° 230° 3 kt METAR EDWE 252350Z AUTO 23003KT 9999 // NCD 04/04 Q1023
00:20
M
5 °C 7 km - 240° 240° 4 kt METAR EDWE 252320Z AUTO 24004KT 7000 // NCD 05/04 Q1022

25. November 2022

Uhrzeit Code Wetter Temp. Sichtweite Wolkendecke Wind METAR/SPECI
23:50
V
4 °C 10 km+ - 250° 250° 5 kt METAR EDWE 252250Z AUTO 25005KT 9999 // FEW030/// 04/04 Q1022
23:20
V
5 °C 10 km+ - 240° 240° 6 kt METAR EDWE 252220Z AUTO 24006KT 9999 // NCD 05/05 Q1022
22:50
V
5 °C 8 km - 230° 230° 5 kt METAR EDWE 252150Z AUTO 23005KT 8000 // NCD 05/05 Q1021
22:20
V
6 °C 9 km - 230° 230° 5 kt METAR EDWE 252120Z AUTO 23005KT 9000 // NCD 06/05 Q1021
21:50
V
5 °C 10 km+ - 240° 240° 4 kt METAR EDWE 252050Z AUTO 24004KT 9999 // NCD 05/05 Q1021
21:20
V
6 °C 10 km+ - 240° 240° 5 kt METAR EDWE 252020Z AUTO 24005KT 9999 // FEW029/// 06/05 Q1020
20:50
V
6 °C 10 km+ - 250° 250° 5 kt METAR EDWE 251950Z AUTO 25005KT 9999 // FEW025/// 06/05 Q1020
20:20
V
7 °C 10 km+ - 240° 240° 6 kt METAR EDWE 251920Z AUTO 24006KT 9999 // NCD 07/06 Q1019
19:50
V
8 °C 10 km+ - 230° 230° 5 kt METAR EDWE 251850Z AUTO 23005KT 9999 // NCD 08/06 Q1019
19:20
V
8 °C 10 km+ - 230° 230° 6 kt METAR EDWE 251820Z AUTO 23006KT 9999 // FEW024/// 08/06 Q1018
18:50
V
8 °C 10 km+ - 230° 230° 6 kt METAR EDWE 251750Z AUTO 23006KT 9999 // FEW031/// 08/06 Q1018
18:20
V
9 °C 10 km+ - 220° 220° 5 kt METAR EDWE 251720Z AUTO 22005KT 9999 // NCD 09/07 Q1017
17:50
V
9 °C 10 km+ - 220° 220° 5 kt METAR EDWE 251650Z 22005KT CAVOK 09/07 Q1017
17:20
V
9 °C 10 km+ - 230° 230° 6 kt METAR EDWE 251620Z 23006KT CAVOK 09/08 Q1016
16:50
V
10 °C 10 km+ - 230° 230° 6 kt METAR EDWE 251550Z 23006KT 9999 FEW019 SCT049 10/08 Q1016
16:20
V
10 °C 10 km+ 4.500 ft 240° 240° 7 kt METAR EDWE 251520Z 24007KT 9999 SCT028 BKN045 10/08 Q1015
15:50
V
10 °C 10 km+ - 230° 230° 7 kt METAR EDWE 251450Z 23007KT 9999 FEW025 SCT049 10/08 Q1015
15:20
V
10 °C 10 km+ - 210° 210° 6 kt METAR EDWE 251420Z 21006KT 180V240 CAVOK 10/08 Q1014
14:50
V
11 °C 10 km+ - 220° 220° 8 kt METAR EDWE 251350Z 22008KT 180V240 CAVOK 11/08 Q1014
14:20
V
11 °C 10 km+ - 220° 220° 9 kt METAR EDWE 251320Z 22009KT 190V250 CAVOK 11/08 Q1014
13:50
V
11 °C 10 km+ - 220° 220° 8 kt METAR EDWE 251250Z 22008KT CAVOK 11/08 Q1013
13:20
V
11 °C 10 km+ - 220° 220° 8 kt METAR EDWE 251220Z 22008KT CAVOK 11/08 Q1013
12:50
V
10 °C 10 km+ - 220° 220° 7 kt METAR EDWE 251150Z 22007KT CAVOK 10/08 Q1013

Wir und Dritte verfolgen dein Internetverhalten auf unserer Website mit Cookies. Wenn du fortfährst, gehen wir davon aus, dass du mit unserer Cookie-Richtlinie einverstanden bist.